Time;durP1;ratioP1;P1;durP2;ratioP2;P2;SDS_P1;SDS_P2;PMS_P1;PMS_P2;Temp;Humidity;BMP_temperature;BMP_pressure;BME280_temperature;BME280_humidity;BME280_pressure;Samples;Min_cycle;Max_cycle;Signal;HPM_P1;HPM_P2
2021/01/10 00:00:58;;;;;;;304.48;146.15;;;;;;;;;;5094888;28;20031;-73
2021/01/10 00:03:24;;;;;;;285.77;133.02;;;;;;;;;;5095346;28;20370;-74
2021/01/10 00:05:50;;;;;;;237.80;114.32;;;;;;;;;;5096902;28;20044;-75
2021/01/10 00:08:16;;;;;;;212.90;103.78;;;;;;;;;;5097191;28;20016;-73
2021/01/10 00:10:42;;;;;;;202.30;97.18;;;;;;;;;;5095857;28;20341;-75
2021/01/10 00:13:09;;;;;;;188.18;92.00;;;;;;;;;;5095471;28;20031;-73
2021/01/10 00:15:35;;;;;;;170.68;86.82;;;;;;;;;;5096996;28;20022;-79
2021/01/10 00:18:01;;;;;;;159.90;79.47;;;;;;;;;;5097294;28;20099;-78
2021/01/10 00:20:27;;;;;;;139.95;69.60;;;;;;;;;;5098759;28;20012;-77
2021/01/10 00:22:54;;;;;;;128.38;64.47;;;;;;;;;;5097223;28;20046;-77
2021/01/10 00:25:21;;;;;;;110.70;54.90;;;;;;;;;;5097219;28;20490;-77
2021/01/10 00:27:47;;;;;;;103.15;49.97;;;;;;;;;;5099031;28;20024;-76
2021/01/10 00:30:15;;;;;;;97.88;47.97;;;;;;;;;;5096904;28;20075;-78
2021/01/10 00:32:41;;;;;;;;;;;;;;;;;;5097872;28;20020;-79
2021/01/10 00:35:07;;;;;;;98.97;48.03;;;;;;;;;;5098139;28;19907;-78
2021/01/10 00:37:34;;;;;;;93.80;43.55;;;;;;;;;;5099059;28;20153;-78
2021/01/10 00:40:00;;;;;;;87.40;44.47;;;;;;;;;;5099111;28;20115;-79
2021/01/10 00:42:26;;;;;;;85.10;42.85;;;;;;;;;;5099808;28;20413;-79
2021/01/10 00:44:52;;;;;;;88.18;44.33;;;;;;;;;;5098334;28;20087;-77
2021/01/10 00:47:18;;;;;;;63.70;33.53;;;;;;;;;;5098642;28;20061;-77
2021/01/10 00:49:45;;;;;;;62.63;33.25;;;;;;;;;;5095481;28;20026;-74
2021/01/10 00:52:11;;;;;;;64.63;34.88;;;;;;;;;;5094308;28;20016;-76
2021/01/10 00:54:37;;;;;;;55.55;29.20;;;;;;;;;;5094019;28;20046;-76
2021/01/10 00:57:04;;;;;;;51.47;28.60;;;;;;;;;;5094764;28;20066;-76
2021/01/10 00:59:30;;;;;;;59.33;31.75;;;;;;;;;;5095122;28;20073;-78
2021/01/10 01:01:56;;;;;;;52.42;30.02;;;;;;;;;;5093825;28;20024;-77
2021/01/10 01:04:23;;;;;;;57.67;32.35;;;;;;;;;;5094035;28;20055;-75
2021/01/10 01:06:49;;;;;;;55.53;29.15;;;;;;;;;;5093902;28;20153;-75
2021/01/10 01:09:15;;;;;;;52.75;29.23;;;;;;;;;;5094357;28;20024;-76
2021/01/10 01:11:41;;;;;;;48.53;27.80;;;;;;;;;;5093841;28;20080;-76
2021/01/10 01:14:08;;;;;;;47.83;25.90;;;;;;;;;;5095050;28;20024;-76
2021/01/10 01:16:39;;;;;;;48.13;25.53;;;;;;;;;;5093772;28;20461;-76
2021/01/10 01:19:06;;;;;;;50.67;27.98;;;;;;;;;;5094786;28;20043;-76
2021/01/10 01:21:32;;;;;;;45.10;24.70;;;;;;;;;;5094815;28;20027;-76
2021/01/10 01:23:58;;;;;;;50.35;25.73;;;;;;;;;;5094016;28;20118;-75
2021/01/10 01:26:25;;;;;;;46.10;27.00;;;;;;;;;;5093619;28;20028;-77
2021/01/10 01:28:52;;;;;;;51.22;26.70;;;;;;;;;;5093540;28;20456;-74
2021/01/10 01:31:20;;;;;;;48.42;28.10;;;;;;;;;;5093466;28;20473;-78
2021/01/10 01:33:47;;;;;;;49.35;24.70;;;;;;;;;;5094309;28;20457;-76
2021/01/10 01:36:15;;;;;;;53.58;27.45;;;;;;;;;;5093579;28;20016;-77
2021/01/10 01:38:42;;;;;;;50.65;27.23;;;;;;;;;;5095308;28;20019;-76
2021/01/10 01:41:08;;;;;;;50.80;27.75;;;;;;;;;;5093668;28;20016;-75
2021/01/10 01:43:34;;;;;;;54.17;28.08;;;;;;;;;;5094600;28;20051;-77
2021/01/10 01:46:04;;;;;;;47.92;25.65;;;;;;;;;;5095592;28;20023;-78
2021/01/10 01:48:31;;;;;;;47.20;26.92;;;;;;;;;;5094587;28;20016;-77
2021/01/10 01:51:01;;;;;;;50.65;29.20;;;;;;;;;;5095214;28;20103;-78
2021/01/10 01:53:27;;;;;;;57.45;31.42;;;;;;;;;;5095058;28;20031;-78
2021/01/10 01:55:54;;;;;;;51.90;27.67;;;;;;;;;;5093806;28;20020;-75
2021/01/10 01:58:20;;;;;;;53.00;28.30;;;;;;;;;;5093371;28;20020;-76
2021/01/10 02:00:47;;;;;;;47.42;25.67;;;;;;;;;;5093215;28;20393;-77
2021/01/10 02:03:24;;;;;;;48.67;28.10;;;;;;;;;;5094363;28;20016;-76
2021/01/10 02:05:52;;;;;;;49.75;28.30;;;;;;;;;;5093387;28;20016;-77
2021/01/10 02:08:18;;;;;;;49.60;28.52;;;;;;;;;;5097029;28;20027;-76
2021/01/10 02:10:45;;;;;;;52.40;28.17;;;;;;;;;;5097437;28;20028;-76
2021/01/10 02:13:16;;;;;;;54.75;27.75;;;;;;;;;;5098195;28;20056;-76
2021/01/10 02:15:43;;;;;;;49.00;29.05;;;;;;;;;;5098930;28;20020;-76
2021/01/10 02:18:09;;;;;;;51.05;28.40;;;;;;;;;;5097254;28;20020;-76
2021/01/10 02:20:39;;;;;;;57.42;30.92;;;;;;;;;;5097341;28;20024;-77
2021/01/10 02:23:05;;;;;;;58.45;29.30;;;;;;;;;;5097307;28;20049;-77
2021/01/10 02:25:33;;;;;;;59.25;30.80;;;;;;;;;;5097460;28;20471;-76
2021/01/10 02:28:00;;;;;;;58.97;36.28;;;;;;;;;;5098110;28;20043;-76
2021/01/10 02:30:27;;;;;;;58.50;32.85;;;;;;;;;;5097834;28;20155;-76
2021/01/10 02:32:56;;;;;;;46.25;28.45;;;;;;;;;;5097833;28;20029;-76
2021/01/10 02:35:22;;;;;;;55.53;29.23;;;;;;;;;;5096829;28;20411;-76
2021/01/10 02:37:51;;;;;;;52.22;28.00;;;;;;;;;;5096800;28;20024;-76
2021/01/10 02:40:20;;;;;;;52.70;29.80;;;;;;;;;;5096520;28;20110;-76
2021/01/10 02:42:56;;;;;;;51.22;26.60;;;;;;;;;;5097312;28;20039;-76
2021/01/10 02:45:24;;;;;;;49.92;27.15;;;;;;;;;;5096390;28;20028;-76
2021/01/10 02:47:49;;;;;;;;;;;;;;;;;;5097994;28;20357;-76
2021/01/10 02:50:19;;;;;;;53.30;27.90;;;;;;;;;;5096500;28;19900;-76
2021/01/10 02:52:48;;;;;;;48.40;27.30;;;;;;;;;;5097419;28;20078;-76
2021/01/10 02:55:15;;;;;;;56.75;30.13;;;;;;;;;;5097785;28;20020;-76
2021/01/10 02:57:43;;;;;;;50.97;29.93;;;;;;;;;;5097685;28;20024;-76
2021/01/10 03:00:10;;;;;;;56.97;32.28;;;;;;;;;;5097632;28;20356;-76
2021/01/10 03:02:36;;;;;;;54.00;29.00;;;;;;;;;;5096435;28;20024;-76
2021/01/10 03:05:03;;;;;;;54.70;32.15;;;;;;;;;;5097402;28;20392;-75
2021/01/10 03:07:30;;;;;;;53.58;31.33;;;;;;;;;;5097446;28;20035;-75
2021/01/10 03:09:56;;;;;;;56.45;32.25;;;;;;;;;;5097622;28;20020;-77
2021/01/10 03:12:26;;;;;;;58.85;32.88;;;;;;;;;;5095926;28;20081;-76
2021/01/10 03:14:53;;;;;;;62.25;33.25;;;;;;;;;;5095876;28;20043;-76
2021/01/10 03:17:42;;;;;;;56.08;31.50;;;;;;;;;;5095951;28;20101;-75
2021/01/10 03:20:09;;;;;;;61.50;32.05;;;;;;;;;;5096438;28;20456;-75
2021/01/10 03:22:36;;;;;;;55.72;32.83;;;;;;;;;;5097254;28;20082;-76
2021/01/10 03:25:03;;;;;;;56.13;31.75;;;;;;;;;;5095804;28;20067;-74
2021/01/10 03:27:30;;;;;;;64.68;35.15;;;;;;;;;;5096743;28;20016;-77
2021/01/10 03:29:56;;;;;;;66.72;35.50;;;;;;;;;;5101308;28;20024;-77
2021/01/10 03:32:23;;;;;;;60.50;32.38;;;;;;;;;;5101506;28;20020;-77
2021/01/10 03:34:49;;;;;;;60.75;35.10;;;;;;;;;;5099943;28;20024;-78
2021/01/10 03:37:15;;;;;;;60.10;34.83;;;;;;;;;;5096040;28;20017;-77
2021/01/10 03:39:41;;;;;;;59.22;33.30;;;;;;;;;;5097418;28;20027;-77
2021/01/10 03:42:07;;;;;;;63.40;34.58;;;;;;;;;;5095635;28;20024;-76
2021/01/10 03:44:33;;;;;;;69.15;35.55;;;;;;;;;;5096317;28;20024;-78
2021/01/10 03:46:59;;;;;;;72.82;37.33;;;;;;;;;;5095863;28;20020;-77
2021/01/10 03:49:26;;;;;;;86.38;39.50;;;;;;;;;;5095147;28;20111;-76
2021/01/10 03:51:52;;;;;;;79.65;40.75;;;;;;;;;;5097087;28;20070;-76
2021/01/10 03:54:18;;;;;;;81.75;40.25;;;;;;;;;;5096241;28;20340;-76
2021/01/10 03:56:44;;;;;;;83.30;39.83;;;;;;;;;;5096883;28;20511;-76
2021/01/10 03:59:10;;;;;;;93.55;45.10;;;;;;;;;;5095351;28;20024;-77
2021/01/10 04:01:36;;;;;;;93.65;43.53;;;;;;;;;;5095514;28;20032;-77
2021/01/10 04:04:03;;;;;;;92.80;47.95;;;;;;;;;;5096024;28;20106;-78
2021/01/10 04:06:29;;;;;;;92.72;45.47;;;;;;;;;;5096569;28;20016;-77
2021/01/10 04:08:55;;;;;;;99.10;48.25;;;;;;;;;;5096787;28;20016;-76
2021/01/10 04:11:22;;;;;;;96.30;45.85;;;;;;;;;;5095239;28;20027;-76
2021/01/10 04:13:48;;;;;;;104.90;47.25;;;;;;;;;;5094797;28;20020;-76
2021/01/10 04:16:14;;;;;;;97.72;44.25;;;;;;;;;;5094362;28;20012;-76
2021/01/10 04:18:41;;;;;;;95.88;44.47;;;;;;;;;;5096752;28;20052;-76
2021/01/10 04:21:07;;;;;;;101.30;46.63;;;;;;;;;;5095665;28;20020;-75
2021/01/10 04:23:33;;;;;;;98.85;48.08;;;;;;;;;;5094121;28;20073;-77
2021/01/10 04:25:59;;;;;;;100.45;44.83;;;;;;;;;;5095106;28;20047;-75
2021/01/10 04:28:25;;;;;;;108.00;47.00;;;;;;;;;;5094246;28;20038;-76
2021/01/10 04:30:51;;;;;;;109.30;47.03;;;;;;;;;;5093689;28;20068;-75
2021/01/10 04:33:17;;;;;;;120.82;49.10;;;;;;;;;;5094285;28;20077;-75
2021/01/10 04:35:43;;;;;;;104.03;47.00;;;;;;;;;;5094179;28;20024;-75
2021/01/10 04:38:10;;;;;;;95.60;45.50;;;;;;;;;;5093912;28;20020;-76
2021/01/10 04:40:36;;;;;;;101.10;47.65;;;;;;;;;;5094103;28;20132;-75
2021/01/10 04:43:02;;;;;;;97.93;44.33;;;;;;;;;;5094032;28;20046;-76
2021/01/10 04:45:29;;;;;;;107.80;45.97;;;;;;;;;;5093733;28;20035;-76
2021/01/10 04:47:56;;;;;;;111.00;48.28;;;;;;;;;;5094012;28;20016;-75
2021/01/10 04:50:23;;;;;;;100.25;45.15;;;;;;;;;;5093482;28;20420;-76
2021/01/10 04:52:50;;;;;;;95.07;45.17;;;;;;;;;;5094190;28;20361;-75
2021/01/10 04:55:16;;;;;;;;;;;;;;;;;;5095809;28;20024;-76
2021/01/10 04:57:42;;;;;;;86.90;40.90;;;;;;;;;;5093732;28;19906;-72
2021/01/10 05:00:10;;;;;;;98.80;41.30;;;;;;;;;;5093943;28;20070;-71
2021/01/10 05:02:36;;;;;;;;;;;;;;;;;;5093660;28;20045;-72
2021/01/10 05:05:02;;;;;;;92.93;43.20;;;;;;;;;;5092975;28;19904;-72
2021/01/10 05:07:30;;;;;;;91.35;44.10;;;;;;;;;;5094229;28;20023;-72
2021/01/10 05:09:56;;;;;;;93.70;43.85;;;;;;;;;;5093159;28;20031;-70
2021/01/10 05:12:22;;;;;;;92.78;43.30;;;;;;;;;;5093132;28;20028;-73
2021/01/10 05:14:48;;;;;;;88.22;41.53;;;;;;;;;;5093103;28;20047;-67
2021/01/10 05:17:21;;;;;;;86.10;42.60;;;;;;;;;;5094370;28;20043;-72
2021/01/10 05:19:47;;;;;;;98.97;42.60;;;;;;;;;;5092711;28;20015;-72
2021/01/10 05:22:15;;;;;;;96.93;44.35;;;;;;;;;;5092908;28;20020;-74
2021/01/10 05:24:41;;;;;;;95.97;43.10;;;;;;;;;;5094533;28;20099;-74
2021/01/10 05:27:08;;;;;;;84.22;43.22;;;;;;;;;;5092725;28;20016;-76
2021/01/10 05:29:34;;;;;;;86.38;40.50;;;;;;;;;;5093003;28;20054;-72
2021/01/10 05:32:01;;;;;;;87.97;39.85;;;;;;;;;;5092714;28;20048;-71
2021/01/10 05:34:27;;;;;;;92.88;42.80;;;;;;;;;;5093595;28;20012;-73
2021/01/10 05:36:54;;;;;;;78.70;39.53;;;;;;;;;;5094358;28;20019;-74
2021/01/10 05:39:24;;;;;;;79.55;36.97;;;;;;;;;;5092901;28;20165;-70
2021/01/10 05:41:53;;;;;;;75.18;35.33;;;;;;;;;;5093465;28;20020;-72
2021/01/10 05:44:19;;;;;;;71.68;34.00;;;;;;;;;;5093281;28;20024;-70
2021/01/10 05:46:46;;;;;;;84.07;39.55;;;;;;;;;;5094936;28;20016;-76
2021/01/10 05:49:19;;;;;;;75.82;37.03;;;;;;;;;;5099653;28;20074;-77
2021/01/10 05:51:45;;;;;;;72.43;36.20;;;;;;;;;;5099366;28;20017;-72
2021/01/10 05:54:31;;;;;;;78.88;39.45;;;;;;;;;;5092961;28;20066;-73
2021/01/10 05:56:58;;;;;;;75.88;36.90;;;;;;;;;;5092486;28;20074;-72
2021/01/10 05:59:24;;;;;;;77.70;36.00;;;;;;;;;;5092605;28;20087;-73
2021/01/10 06:01:54;;;;;;;63.78;33.45;;;;;;;;;;5092389;28;20016;-75
2021/01/10 06:04:24;;;;;;;101.90;41.38;;;;;;;;;;5092935;28;20027;-73
2021/01/10 06:06:50;;;;;;;82.82;38.80;;;;;;;;;;5094098;28;20012;-72
2021/01/10 06:09:17;;;;;;;75.07;36.60;;;;;;;;;;5092261;28;20016;-73
2021/01/10 06:11:43;;;;;;;74.32;34.17;;;;;;;;;;5092773;28;20103;-67
2021/01/10 06:14:11;;;;;;;76.32;34.70;;;;;;;;;;5092219;28;20016;-74
2021/01/10 06:16:38;;;;;;;64.45;30.40;;;;;;;;;;5092526;28;20020;-74
2021/01/10 06:19:08;;;;;;;63.08;31.27;;;;;;;;;;5092508;28;20457;-75
2021/01/10 06:21:35;;;;;;;64.90;31.73;;;;;;;;;;5092259;28;20020;-72
2021/01/10 06:24:03;;;;;;;75.93;34.63;;;;;;;;;;5092399;28;20044;-73
2021/01/10 06:26:33;;;;;;;64.20;32.75;;;;;;;;;;5092325;28;20253;-75
2021/01/10 06:29:02;;;;;;;58.30;28.13;;;;;;;;;;5092079;28;20411;-73
2021/01/10 06:31:31;;;;;;;61.15;29.77;;;;;;;;;;5091868;28;20055;-73
2021/01/10 06:33:59;;;;;;;76.03;41.67;;;;;;;;;;5092372;28;20105;-73
2021/01/10 06:36:26;;;;;;;62.90;29.65;;;;;;;;;;5092120;28;20024;-75
2021/01/10 06:38:58;;;;;;;65.00;30.92;;;;;;;;;;5092274;28;20046;-70
2021/01/10 06:41:27;;;;;;;56.25;28.20;;;;;;;;;;5092946;28;20111;-74
2021/01/10 06:44:01;;;;;;;64.15;31.63;;;;;;;;;;5091867;28;20028;-71
2021/01/10 06:46:27;;;;;;;90.20;43.08;;;;;;;;;;5092767;28;20073;-74
2021/01/10 06:48:54;;;;;;;87.50;44.85;;;;;;;;;;5093385;28;20099;-72
2021/01/10 06:51:25;;;;;;;68.05;33.85;;;;;;;;;;5093252;28;20074;-71
2021/01/10 06:53:53;;;;;;;119.18;55.28;;;;;;;;;;5093480;28;20024;-74
2021/01/10 06:56:19;;;;;;;117.00;51.35;;;;;;;;;;5096893;28;20020;-72
2021/01/10 06:59:08;;;;;;;123.55;52.45;;;;;;;;;;5095653;28;20020;-73
2021/01/10 07:01:51;;;;;;;103.63;44.45;;;;;;;;;;5090166;28;20475;-75
2021/01/10 07:04:20;;;;;;;102.72;45.33;;;;;;;;;;5097835;28;20082;-76
2021/01/10 07:06:49;;;;;;;100.50;46.72;;;;;;;;;;5095876;28;20016;-75
2021/01/10 07:09:16;;;;;;;104.15;48.58;;;;;;;;;;5097832;28;20020;-75
2021/01/10 07:11:43;;;;;;;97.07;43.92;;;;;;;;;;5096464;28;20111;-76
2021/01/10 07:14:09;;;;;;;85.83;37.80;;;;;;;;;;5095807;28;20414;-75
2021/01/10 07:16:36;;;;;;;79.75;33.38;;;;;;;;;;5098052;28;20059;-76
2021/01/10 07:19:03;;;;;;;103.97;45.47;;;;;;;;;;5097969;28;20020;-78
2021/01/10 07:21:34;;;;;;;75.35;34.15;;;;;;;;;;5097154;28;20020;-77
2021/01/10 07:24:12;;;;;;;82.00;36.20;;;;;;;;;;5096065;28;20476;-76
2021/01/10 07:26:42;;;;;;;74.45;39.40;;;;;;;;;;5095581;28;20066;-76
2021/01/10 07:29:27;;;;;;;81.65;36.33;;;;;;;;;;5097232;28;20024;-74
2021/01/10 07:31:54;;;;;;;77.20;36.45;;;;;;;;;;5094759;28;20143;-77
2021/01/10 07:34:20;;;;;;;78.82;35.97;;;;;;;;;;5095075;28;20410;-79
2021/01/10 07:36:47;;;;;;;90.85;36.72;;;;;;;;;;5095709;28;20028;-72
2021/01/10 07:39:14;;;;;;;93.95;39.25;;;;;;;;;;5094711;28;20019;-75
2021/01/10 07:41:40;;;;;;;76.43;38.03;;;;;;;;;;5095687;28;20023;-76
2021/01/10 07:44:07;;;;;;;90.40;40.92;;;;;;;;;;5095500;28;20360;-73
2021/01/10 07:47:02;;;;;;;91.75;37.95;;;;;;;;;;5094531;28;20016;-73
2021/01/10 07:49:32;;;;;;;79.03;37.97;;;;;;;;;;5091704;28;20032;-73
2021/01/10 07:51:59;;;;;;;79.47;34.10;;;;;;;;;;5096343;28;20491;-73
2021/01/10 07:54:45;;;;;;;77.25;33.88;;;;;;;;;;5095699;28;20016;-74
2021/01/10 07:57:27;;;;;;;89.85;32.67;;;;;;;;;;5087231;28;20028;-76
2021/01/10 08:00:10;;;;;;;73.57;32.45;;;;;;;;;;5094372;28;20012;-73
2021/01/10 08:02:54;;;;;;;75.15;32.13;;;;;;;;;;5094395;28;20128;-78
2021/01/10 08:05:37;;;;;;;88.07;32.88;;;;;;;;;;5094075;28;20023;-72
2021/01/10 08:08:08;;;;;;;82.80;35.10;;;;;;;;;;5095608;28;20080;-73
2021/01/10 08:10:43;;;;;;;75.10;33.38;;;;;;;;;;5095963;28;20027;-70
2021/01/10 08:13:28;;;;;;;83.45;33.60;;;;;;;;;;5094077;28;20084;-72
2021/01/10 08:15:55;;;;;;;75.15;34.20;;;;;;;;;;5094645;28;20016;-73
2021/01/10 08:18:22;;;;;;;75.28;34.38;;;;;;;;;;5094142;28;20107;-72
2021/01/10 08:20:57;;;;;;;71.57;32.40;;;;;;;;;;5095123;28;20016;-71
2021/01/10 08:23:23;;;;;;;74.97;34.22;;;;;;;;;;5093921;28;20304;-71
2021/01/10 08:25:51;;;;;;;76.40;35.50;;;;;;;;;;5094025;28;20027;-70
2021/01/10 08:28:20;;;;;;;77.53;32.35;;;;;;;;;;5095307;28;20012;-74
2021/01/10 08:30:47;;;;;;;78.32;30.40;;;;;;;;;;5094219;28;20055;-71
2021/01/10 08:33:22;;;;;;;99.47;39.40;;;;;;;;;;5094443;28;20031;-73
2021/01/10 08:35:48;;;;;;;90.47;37.10;;;;;;;;;;5093618;28;20016;-70
2021/01/10 08:38:15;;;;;;;73.50;31.58;;;;;;;;;;5093808;28;20027;-71
2021/01/10 08:40:41;;;;;;;73.95;30.85;;;;;;;;;;5095008;28;20024;-70
2021/01/10 08:43:07;;;;;;;84.55;34.47;;;;;;;;;;5093782;28;20537;-72
2021/01/10 08:45:34;;;;;;;77.78;30.83;;;;;;;;;;5094887;28;20032;-69
2021/01/10 08:48:04;;;;;;;77.20;30.67;;;;;;;;;;5095387;28;20020;-71
2021/01/10 08:50:40;;;;;;;65.35;27.80;;;;;;;;;;5097054;28;20251;-71
2021/01/10 08:53:06;;;;;;;83.38;33.65;;;;;;;;;;5094934;28;20522;-71
2021/01/10 08:55:36;;;;;;;74.93;30.63;;;;;;;;;;5094184;28;20069;-71
2021/01/10 08:58:03;;;;;;;77.03;29.73;;;;;;;;;;5095594;28;20337;-70
2021/01/10 09:00:29;;;;;;;84.17;31.60;;;;;;;;;;5096524;28;20081;-71
2021/01/10 09:02:56;;;;;;;81.72;32.00;;;;;;;;;;5094722;28;20046;-73
2021/01/10 09:05:28;;;;;;;78.05;33.20;;;;;;;;;;5095503;28;20091;-71
2021/01/10 09:07:57;;;;;;;65.20;29.27;;;;;;;;;;5095984;28;20024;-69
2021/01/10 09:10:24;;;;;;;75.97;28.30;;;;;;;;;;5093937;28;20027;-69
2021/01/10 09:12:53;;;;;;;62.45;28.42;;;;;;;;;;5094209;28;20020;-73
2021/01/10 09:15:21;;;;;;;72.25;28.38;;;;;;;;;;5093944;28;20024;-73
2021/01/10 09:17:52;;;;;;;78.00;30.27;;;;;;;;;;5092060;28;20019;-72
2021/01/10 09:20:19;;;;;;;77.15;30.42;;;;;;;;;;5093059;28;20452;-72
2021/01/10 09:22:46;;;;;;;76.32;28.45;;;;;;;;;;5092966;28;20363;-74
2021/01/10 09:25:16;;;;;;;70.63;29.63;;;;;;;;;;5092690;28;20115;-72
2021/01/10 09:28:00;;;;;;;88.45;36.97;;;;;;;;;;5094202;28;20028;-71
2021/01/10 09:30:30;;;;;;;83.38;31.13;;;;;;;;;;5092376;28;20495;-71
2021/01/10 09:32:56;;;;;;;84.65;31.42;;;;;;;;;;5092890;28;20073;-71
2021/01/10 09:35:22;;;;;;;81.43;33.90;;;;;;;;;;5092882;28;20020;-71
2021/01/10 09:37:48;;;;;;;89.82;32.72;;;;;;;;;;5092542;28;20042;-70
2021/01/10 09:40:17;;;;;;;80.53;35.33;;;;;;;;;;5092790;28;20024;-71
2021/01/10 09:42:47;;;;;;;93.60;37.55;;;;;;;;;;5093119;28;20135;-73
2021/01/10 09:45:15;;;;;;;84.55;37.35;;;;;;;;;;5093722;28;20020;-71
2021/01/10 09:47:41;;;;;;;91.22;35.88;;;;;;;;;;5092709;28;20036;-70
2021/01/10 09:50:11;;;;;;;87.90;35.63;;;;;;;;;;5093969;28;20049;-71
2021/01/10 09:52:48;;;;;;;85.13;27.95;;;;;;;;;;5093724;28;20338;-71
2021/01/10 09:55:14;;;;;;;81.82;29.50;;;;;;;;;;5094223;28;20013;-71
2021/01/10 09:57:40;;;;;;;86.88;31.20;;;;;;;;;;5092627;28;20073;-73
2021/01/10 10:00:13;;;;;;;79.53;32.63;;;;;;;;;;5092301;28;20017;-70
2021/01/10 10:02:39;;;;;;;88.47;33.08;;;;;;;;;;5093345;28;20457;-73
2021/01/10 10:05:08;;;;;;;83.15;30.92;;;;;;;;;;5092256;28;20107;-73
2021/01/10 10:07:35;;;;;;;89.15;33.50;;;;;;;;;;5094303;28;20507;-73
2021/01/10 10:10:02;;;;;;;82.55;31.10;;;;;;;;;;5093501;28;20405;-72
2021/01/10 10:12:28;;;;;;;93.80;33.60;;;;;;;;;;5093680;28;20044;-71
2021/01/10 10:14:54;;;;;;;82.43;30.20;;;;;;;;;;5093465;28;20016;-69
2021/01/10 10:17:21;;;;;;;73.75;31.13;;;;;;;;;;5092136;28;20023;-70
2021/01/10 10:19:47;;;;;;;103.43;55.30;;;;;;;;;;5092142;28;20016;-75
2021/01/10 10:22:20;;;;;;;91.22;36.63;;;;;;;;;;5093316;28;20272;-70
2021/01/10 10:24:46;;;;;;;101.20;37.33;;;;;;;;;;5092449;28;20393;-72
2021/01/10 10:27:12;;;;;;;94.47;38.92;;;;;;;;;;5092029;28;20020;-70
2021/01/10 10:29:39;;;;;;;89.13;36.42;;;;;;;;;;5095968;28;20058;-71
2021/01/10 10:32:05;;;;;;;85.13;35.53;;;;;;;;;;5097582;28;20098;-75
2021/01/10 10:34:31;;;;;;;92.05;37.90;;;;;;;;;;5096705;28;20111;-76
2021/01/10 10:36:59;;;;;;;93.97;36.35;;;;;;;;;;5096337;28;20453;-74
2021/01/10 10:39:25;;;;;;;91.35;35.17;;;;;;;;;;5082396;28;20073;-75
2021/01/10 10:41:52;;;;;;;83.97;34.10;;;;;;;;;;5095584;28;20114;-72
2021/01/10 10:44:18;;;;;;;75.63;34.60;;;;;;;;;;5101027;28;20028;-74
2021/01/10 10:46:45;;;;;;;79.63;31.48;;;;;;;;;;5098305;28;20111;-71
2021/01/10 10:49:11;;;;;;;83.83;34.67;;;;;;;;;;5094954;28;20044;-73
2021/01/10 10:51:37;;;;;;;79.43;34.97;;;;;;;;;;5095748;28;20020;-74
2021/01/10 10:54:03;;;;;;;85.88;38.47;;;;;;;;;;5097487;28;20122;-72
2021/01/10 10:56:36;;;;;;;96.38;38.22;;;;;;;;;;5096684;28;20024;-72
2021/01/10 10:59:02;;;;;;;95.07;41.25;;;;;;;;;;5095181;28;20028;-75
2021/01/10 11:01:40;;;;;;;110.13;43.20;;;;;;;;;;5093717;28;20055;-72
2021/01/10 11:04:07;;;;;;;103.78;41.03;;;;;;;;;;5082935;28;20024;-69
2021/01/10 11:06:34;;;;;;;105.05;42.92;;;;;;;;;;5092038;28;20022;-71
2021/01/10 11:09:00;;;;;;;84.65;33.92;;;;;;;;;;5096219;28;20020;-73
2021/01/10 11:11:36;;;;;;;99.65;37.85;;;;;;;;;;5096268;28;20024;-71
2021/01/10 11:14:03;;;;;;;114.57;47.00;;;;;;;;;;5094639;28;20039;-72
2021/01/10 11:16:32;;;;;;;119.72;49.60;;;;;;;;;;5095925;28;20044;-72
2021/01/10 11:18:59;;;;;;;86.22;35.55;;;;;;;;;;5095353;28;20024;-72
2021/01/10 11:21:28;;;;;;;85.65;36.72;;;;;;;;;;5096343;28;20016;-72
2021/01/10 11:23:54;;;;;;;78.35;31.40;;;;;;;;;;5093866;28;20043;-73
2021/01/10 11:26:21;;;;;;;80.05;31.65;;;;;;;;;;5095889;28;20024;-71
2021/01/10 11:28:47;;;;;;;78.53;33.85;;;;;;;;;;5096188;28;20074;-72
2021/01/10 11:31:13;;;;;;;91.88;38.15;;;;;;;;;;5094228;28;20426;-70
2021/01/10 11:33:39;;;;;;;98.53;40.53;;;;;;;;;;5095729;28;20034;-75
2021/01/10 11:36:07;;;;;;;89.88;38.83;;;;;;;;;;5094653;28;20417;-72
2021/01/10 11:38:34;;;;;;;99.15;39.20;;;;;;;;;;5095724;28;20035;-70
2021/01/10 11:41:04;;;;;;;100.07;44.85;;;;;;;;;;5094136;28;20020;-70
2021/01/10 11:43:31;;;;;;;89.65;34.97;;;;;;;;;;5094547;28;20013;-75
2021/01/10 11:45:57;;;;;;;91.28;34.47;;;;;;;;;;5095043;28;20035;-70
2021/01/10 11:48:23;;;;;;;131.95;50.13;;;;;;;;;;5095986;28;20027;-75
2021/01/10 11:50:49;;;;;;;116.07;46.95;;;;;;;;;;5095473;28;20492;-77
2021/01/10 11:53:15;;;;;;;127.05;51.58;;;;;;;;;;5098568;28;20087;-76
2021/01/10 11:55:41;;;;;;;120.65;49.72;;;;;;;;;;5100388;28;20395;-76
2021/01/10 11:58:07;;;;;;;112.90;47.03;;;;;;;;;;5097913;28;20101;-76
2021/01/10 12:00:33;;;;;;;85.25;33.88;;;;;;;;;;5093817;28;20461;-73
2021/01/10 12:02:59;;;;;;;109.90;43.45;;;;;;;;;;5092913;28;20035;-71
2021/01/10 12:05:25;;;;;;;109.85;46.03;;;;;;;;;;5093243;28;20074;-72
2021/01/10 12:07:51;;;;;;;98.93;38.65;;;;;;;;;;5092582;28;20024;-76
2021/01/10 12:10:18;;;;;;;100.65;38.25;;;;;;;;;;5093634;28;20027;-77
2021/01/10 12:12:44;;;;;;;107.90;39.58;;;;;;;;;;5095572;28;20078;-73
2021/01/10 12:15:10;;;;;;;92.47;35.53;;;;;;;;;;5093775;28;20484;-75
2021/01/10 12:17:36;;;;;;;116.72;47.75;;;;;;;;;;5094212;28;20517;-72
2021/01/10 12:20:03;;;;;;;102.00;41.22;;;;;;;;;;5092481;28;20020;-72
2021/01/10 12:22:29;;;;;;;112.43;44.60;;;;;;;;;;5109327;28;20039;-73
2021/01/10 12:24:55;;;;;;;137.23;46.60;;;;;;;;;;5092048;28;20476;-72
2021/01/10 12:27:21;;;;;;;123.55;46.45;;;;;;;;;;5092415;28;20068;-74
2021/01/10 12:29:47;;;;;;;132.65;51.30;;;;;;;;;;5094765;28;20051;-72
2021/01/10 12:32:14;;;;;;;95.00;35.97;;;;;;;;;;5092841;28;20466;-72
2021/01/10 12:34:40;;;;;;;97.35;41.15;;;;;;;;;;5092195;28;20077;-75
2021/01/10 12:37:07;;;;;;;107.47;41.83;;;;;;;;;;5092301;28;20020;-72
2021/01/10 12:39:33;;;;;;;109.97;42.72;;;;;;;;;;5092963;28;20074;-72
2021/01/10 12:41:59;;;;;;;114.88;43.75;;;;;;;;;;5091948;28;21315;-66
2021/01/10 12:44:25;;;;;;;108.63;41.22;;;;;;;;;;5106293;28;20050;-65
2021/01/10 12:46:51;;;;;;;112.72;44.10;;;;;;;;;;5092177;28;20359;-69
2021/01/10 12:49:17;;;;;;;127.70;52.17;;;;;;;;;;5092488;28;20077;-68
2021/01/10 12:51:45;;;;;;;155.73;58.08;;;;;;;;;;5091262;28;20475;-69
2021/01/10 12:54:11;;;;;;;129.48;49.47;;;;;;;;;;5091950;28;20024;-74
2021/01/10 12:56:37;;;;;;;89.13;38.92;;;;;;;;;;5093461;28;20031;-74
2021/01/10 12:59:03;;;;;;;86.00;36.42;;;;;;;;;;5092195;28;20020;-73
2021/01/10 13:01:30;;;;;;;89.55;35.47;;;;;;;;;;5091736;28;20142;-74
2021/01/10 13:03:56;;;;;;;96.40;42.35;;;;;;;;;;5101110;28;20400;-82
2021/01/10 13:06:23;;;;;;;105.18;42.25;;;;;;;;;;5105764;28;20023;-79
2021/01/10 13:08:50;;;;;;;85.45;36.83;;;;;;;;;;5100613;28;20020;-79
2021/01/10 13:11:23;;;;;;;90.43;33.72;;;;;;;;;;5103099;28;20019;-78
2021/01/10 13:13:51;;;;;;;78.65;33.42;;;;;;;;;;5094404;28;20483;-76
2021/01/10 13:16:17;;;;;;;93.30;31.15;;;;;;;;;;5093342;28;20140;-73
2021/01/10 13:18:43;;;;;;;78.93;30.50;;;;;;;;;;5075058;28;20448;-74
2021/01/10 13:21:10;;;;;;;83.38;31.95;;;;;;;;;;5092420;28;20027;-76
2021/01/10 13:23:36;;;;;;;102.85;38.63;;;;;;;;;;5092157;28;20534;-71
2021/01/10 13:26:02;;;;;;;78.32;31.17;;;;;;;;;;5092321;28;20020;-76
2021/01/10 13:28:28;;;;;;;97.95;40.03;;;;;;;;;;5092169;28;20011;-71
2021/01/10 13:30:54;;;;;;;91.90;37.00;;;;;;;;;;5092731;28;20044;-73
2021/01/10 13:33:20;;;;;;;84.25;31.63;;;;;;;;;;5092541;28;20035;-71
2021/01/10 13:35:46;;;;;;;89.70;37.42;;;;;;;;;;5092444;28;20016;-72
2021/01/10 13:38:12;;;;;;;82.25;33.53;;;;;;;;;;5092397;28;20076;-69
2021/01/10 13:40:39;;;;;;;81.20;32.75;;;;;;;;;;5092748;28;20445;-75
2021/01/10 13:43:05;;;;;;;64.88;26.67;;;;;;;;;;5092310;28;20035;-74
2021/01/10 13:45:31;;;;;;;89.25;34.90;;;;;;;;;;5092677;28;20361;-74
2021/01/10 13:47:57;;;;;;;86.55;35.45;;;;;;;;;;5092295;28;20024;-74
2021/01/10 13:50:23;;;;;;;99.22;34.85;;;;;;;;;;5091279;28;20012;-74
2021/01/10 13:52:50;;;;;;;82.38;29.88;;;;;;;;;;5091128;28;20461;-76
2021/01/10 13:55:16;;;;;;;77.45;32.67;;;;;;;;;;5091614;28;20048;-75
2021/01/10 13:57:42;;;;;;;70.95;30.02;;;;;;;;;;5095058;28;20042;-77
2021/01/10 14:00:14;;;;;;;107.63;41.17;;;;;;;;;;5091861;28;20013;-77
2021/01/10 14:02:41;;;;;;;79.68;32.05;;;;;;;;;;5092813;28;20035;-74
2021/01/10 14:05:08;;;;;;;78.70;30.08;;;;;;;;;;5095996;28;20426;-76
2021/01/10 14:07:34;;;;;;;77.93;30.92;;;;;;;;;;5096863;28;20016;-73
2021/01/10 14:10:00;;;;;;;107.63;42.33;;;;;;;;;;5096446;28;20023;-76
2021/01/10 14:12:26;;;;;;;86.43;31.40;;;;;;;;;;5095632;28;20107;-75
2021/01/10 14:14:52;;;;;;;352.85;208.45;;;;;;;;;;5098032;28;20020;-69
2021/01/10 14:17:18;;;;;;;123.43;41.80;;;;;;;;;;5097221;28;20037;-75
2021/01/10 14:19:44;;;;;;;86.72;35.30;;;;;;;;;;5098180;28;20038;-75